Terminal Aerodrome Forecast
Issued by NWS

Home | Current Version | Previous Version | Graphics & Text | Print | Product List | Glossary On
Versions: 1 2 3 4 5 6 7 8 9 10 11 12 13 14 15 16 17 18 19
288
FTUS41 KCLE 181139
TAFFDY
TAF
KFDY 181139Z 1812/1912 25012KT 6SM BR OVC007
      TEMPO 1812/1815 4SM BR
     FM181600 26010KT P6SM OVC015
     FM190000 23007KT P6SM OVC015=

USA.gov is the U.S. government's official web portal to all federal, state and local government web resources and services.